Jackson Hole (JAC/KJAC)

Map

Information

Location
Jackson Hole, WY
Local Time
17:22 / 5:22 pm
GMT Time
00:22 / 12:22 am
Gates
Unassigned
No FAA reported delays
METAR KJAC 230020Z 00000KT 10SM BKN060 M02/M01 A2980
TAF KJAC 222333Z 2300/2324 VRB06KT P6SM SCT030 BKN050 FM230500 36006KT P6SM VCSH BKN035 FM231200 36014G22KT 6SM -SN OVC035 AMD LTD TO CLD VIS AND WIND
  • No charts available